Time;durP1;ratioP1;P1;durP2;ratioP2;P2;SDS_P1;SDS_P2;PMS_P1;PMS_P2;Temp;Humidity;BMP_temperature;BMP_pressure;BME280_temperature;BME280_humidity;BME280_pressure;Samples;Min_cycle;Max_cycle;Signal;HPM_P1;HPM_P2
2022/02/10 00:04:56;;;;;;;22.25;14.90;;;11.90;75.00;;;;;;5080062;28;20204;-87
2022/02/10 00:20:44;;;;;;;36.90;15.82;;;11.80;75.50;;;;;;5118257;28;20211;-86
2022/02/10 00:36:41;;;;;;;22.30;14.35;;;12.00;74.70;;;;;;5117097;28;20286;-86
2022/02/10 00:41:51;;;;;;;33.38;14.27;;;12.00;74.40;;;;;;5097272;28;20680;-86
2022/02/10 00:44:17;;;;;;;19.53;13.30;;;12.00;74.40;;;;;;5077833;28;20227;-87
2022/02/10 00:46:42;;;;;;;23.07;15.00;;;11.90;74.70;;;;;;5098909;28;20261;-86
2022/02/10 00:49:08;;;;;;;21.90;13.00;;;12.00;74.40;;;;;;5116813;28;20270;-86
2022/02/10 00:51:35;;;;;;;25.67;12.60;;;11.90;73.30;;;;;;5098554;28;20428;-87
2022/02/10 00:54:00;;;;;;;21.85;13.25;;;12.00;73.10;;;;;;5097492;28;20203;-85
2022/02/10 00:56:26;;;;;;;27.60;14.27;;;11.90;72.80;;;;;;5116572;28;20202;-86
2022/02/10 00:59:07;;;;;;;27.90;13.90;;;11.80;72.80;;;;;;5098056;28;20443;-86
2022/02/10 01:07:12;;;;;;;24.15;13.05;;;11.60;73.50;;;;;;5108304;28;20563;-86
2022/02/10 01:12:44;;;;;;;24.00;13.15;;;11.20;74.80;;;;;;5109616;28;20193;-86
2022/02/10 01:31:45;;;;;;;20.88;12.18;;;10.80;77.80;;;;;;5096381;28;20647;-86
2022/02/10 01:34:11;;;;;;;25.20;11.30;;;10.80;77.30;;;;;;5079665;28;20203;-86
2022/02/10 01:36:36;;;;;;;20.13;11.80;;;10.80;76.60;;;;;;5081064;28;20211;-86
2022/02/10 01:39:04;;;;;;;25.83;12.53;;;10.80;76.80;;;;;;5104948;28;20507;-86
2022/02/10 01:58:37;;;;;;;21.00;14.38;;;10.40;78.70;;;;;;5116761;28;20170;-86
2022/02/10 02:03:53;;;;;;;26.23;13.77;;;10.10;79.20;;;;;;5099051;28;20202;-87
2022/02/10 02:06:26;;;;;;;23.13;14.45;;;10.10;80.40;;;;;;5109109;28;20203;-87
2022/02/10 02:08:52;;;;;;;25.30;15.02;;;10.00;79.90;;;;;;5094984;28;20180;-87
2022/02/10 02:11:23;;;;;;;26.00;15.07;;;9.90;80.40;;;;;;5097330;28;20237;-86
2022/02/10 02:13:49;;;;;;;29.90;15.35;;;9.90;80.70;;;;;;5090227;28;20210;-87
2022/02/10 02:16:14;;;;;;;31.67;17.20;;;9.80;80.80;;;;;;5099734;28;20679;-86
2022/02/10 04:26:16;;;;;;;49.20;21.45;;;9.90;82.10;;;;;;5021352;28;20181;-90
2022/02/10 04:32:09;;;;;;;49.95;23.98;;;9.60;81.60;;;;;;5045842;28;20267;-90
2022/02/10 04:37:45;;;;;;;39.47;20.45;;;9.50;82.30;;;;;;5077935;28;20182;-91
2022/02/10 04:54:15;;;;;;;33.58;19.70;;;9.70;81.30;;;;;;5076084;28;20226;-90
2022/02/10 05:07:22;;;;;;;42.67;23.92;;;9.60;81.80;;;;;;5074582;28;20208;-90
2022/02/10 05:15:40;;;;;;;40.53;21.83;;;9.60;82.00;;;;;;5074330;28;20203;-90
2022/02/10 05:34:20;;;;;;;43.08;22.67;;;9.90;81.50;;;;;;5086412;28;20165;-91
2022/02/10 05:36:47;;;;;;;40.22;21.33;;;9.90;81.40;;;;;;5067149;28;20207;-90
2022/02/10 05:39:20;;;;;;;43.72;23.00;;;10.20;81.10;;;;;;5058060;28;20196;-91
2022/02/10 05:57:15;;;;;;;43.22;23.13;;;10.20;79.50;;;;;;5075320;28;20273;-91
2022/02/10 06:51:44;;;;;;;45.42;22.92;;;10.00;82.40;;;;;;5074906;28;20156;-93
2022/02/10 06:57:51;;;;;;;46.33;25.77;;;9.90;83.50;;;;;;5080118;28;20195;-93
2022/02/10 07:08:05;;;;;;;49.97;24.85;;;9.70;84.70;;;;;;5098745;28;20191;-89
2022/02/10 07:49:01;;;;;;;47.17;24.58;;;9.60;86.20;;;;;;5078142;28;20410;-92
2022/02/10 09:01:18;;;;;;;43.50;21.20;;;9.40;90.00;;;;;;5059932;28;20252;-87
2022/02/10 09:03:54;;;;;;;38.72;20.83;;;9.60;89.90;;;;;;5055489;28;20681;-88
2022/02/10 10:03:22;;;;;;;16.20;10.82;;;9.50;89.20;;;;;;5035165;28;20185;-88
2022/02/10 10:06:02;;;;;;;15.68;9.38;;;9.50;89.20;;;;;;5036082;28;20177;-88
2022/02/10 10:14:12;;;;;;;19.35;11.10;;;9.90;89.40;;;;;;5032895;28;20319;-88
2022/02/10 10:16:49;;;;;;;18.38;10.77;;;10.20;89.00;;;;;;5027775;28;20283;-88
2022/02/10 10:19:36;;;;;;;24.05;11.30;;;10.30;88.70;;;;;;5052093;28;20220;-88
2022/02/10 10:22:21;;;;;;;20.48;11.02;;;10.30;88.00;;;;;;5020980;28;20170;-88
2022/02/10 10:53:23;;;;;;;17.63;9.05;;;9.60;87.00;;;;;;5047229;28;20169;-88
2022/02/10 10:55:57;;;;;;;15.65;8.85;;;9.40;85.30;;;;;;5039201;28;20210;-88
2022/02/10 10:58:47;;;;;;;21.17;7.43;;;9.50;85.70;;;;;;5038484;28;20197;-87
2022/02/10 11:41:07;;;;;;;4.32;1.50;;;10.00;68.60;;;;;;5033134;28;20723;-88
2022/02/10 14:15:02;;;;;;;7.50;4.07;;;11.00;64.10;;;;;;5055027;28;20177;-88
2022/02/10 14:17:33;;;;;;;8.38;3.45;;;11.00;64.40;;;;;;5018611;28;20238;-87
2022/02/10 14:20:10;;;;;;;18.00;4.25;;;11.00;64.90;;;;;;5029236;28;20233;-88
2022/02/10 14:27:46;;;;;;;8.93;3.10;;;11.10;66.20;;;;;;5057912;28;20184;-87
2022/02/10 14:30:12;;;;;;;6.87;2.87;;;11.10;66.30;;;;;;5037278;28;20204;-88
2022/02/10 14:32:43;;;;;;;10.45;3.60;;;11.10;66.80;;;;;;5041467;28;20185;-89
2022/02/10 14:35:24;;;;;;;5.03;4.05;;;11.10;67.10;;;;;;5041226;28;20181;-88
2022/02/10 15:20:54;;;;;;;4.93;2.85;;;10.10;72.90;;;;;;5044847;28;20173;-88
2022/02/10 15:21:39;;;;;;;6.25;3.08;;;10.10;72.70;;;;;;5060329;28;20182;-88
2022/02/10 15:33:05;;;;;;;9.25;4.47;;;10.20;73.20;;;;;;5057019;28;20205;-86
2022/02/10 15:51:26;;;;;;;19.63;6.95;;;9.70;77.30;;;;;;5057798;28;20180;-87
2022/02/10 16:16:47;;;;;;;9.45;4.03;;;9.40;76.80;;;;;;5049546;28;20699;-88
2022/02/10 16:18:50;;;;;;;8.00;3.15;;;9.20;74.80;;;;;;5049806;28;21741;-87
2022/02/10 16:21:27;;;;;;;7.28;3.38;;;9.20;73.60;;;;;;5031590;28;20257;-86
2022/02/10 16:24:00;;;;;;;9.43;3.33;;;9.20;73.50;;;;;;5031495;28;20205;-88
2022/02/10 16:26:35;;;;;;;6.20;2.38;;;9.30;73.70;;;;;;5030756;28;20204;-88
2022/02/10 16:29:02;;;;;;;6.93;2.75;;;9.10;73.70;;;;;;5033875;28;20205;-87
2022/02/10 16:31:28;;;;;;;4.78;2.65;;;9.10;73.80;;;;;;5038857;28;20730;-87
2022/02/10 16:33:56;;;;;;;8.00;2.53;;;9.20;73.60;;;;;;5036412;28;20189;-86
2022/02/10 16:36:28;;;;;;;7.43;2.72;;;9.30;73.00;;;;;;5035996;28;20459;-88
2022/02/10 16:38:57;;;;;;;7.75;2.47;;;9.10;71.50;;;;;;5035771;28;20280;-87
2022/02/10 16:41:23;;;;;;;11.02;2.33;;;9.10;71.40;;;;;;5019139;28;20273;-87
2022/02/10 16:43:49;;;;;;;7.20;2.10;;;9.00;70.80;;;;;;5044715;28;20205;-87
2022/02/10 16:46:15;;;;;;;5.63;2.20;;;9.10;70.80;;;;;;5018419;28;20189;-87
2022/02/10 16:48:41;;;;;;;6.70;2.25;;;9.10;70.90;;;;;;5031608;28;20652;-87
2022/02/10 16:51:09;;;;;;;10.50;2.28;;;9.00;70.90;;;;;;5019574;28;20658;-88
2022/02/10 16:53:40;;;;;;;6.90;2.60;;;9.00;70.80;;;;;;5038244;28;20209;-87
2022/02/10 16:56:12;;;;;;;15.60;4.05;;;9.10;71.00;;;;;;5052501;28;20197;-87
2022/02/10 17:04:17;;;;;;;10.23;2.70;;;9.30;71.80;;;;;;5046417;28;20186;-88
2022/02/10 17:18:01;;;;;;;5.78;2.72;;;9.40;72.40;;;;;;5042372;28;20197;-87
2022/02/10 17:25:38;;;;;;;4.95;1.63;;;9.20;71.60;;;;;;5053805;28;20209;-88
2022/02/10 17:28:06;;;;;;;11.43;2.10;;;9.10;69.90;;;;;;5036158;28;20602;-89
2022/02/10 17:30:58;;;;;;;12.25;3.10;;;9.10;69.80;;;;;;5040990;28;20207;-88
2022/02/10 17:36:25;;;;;;;7.13;2.92;;;9.00;71.60;;;;;;5008208;28;20275;-88
2022/02/10 17:42:31;;;;;;;4.30;2.47;;;8.90;74.70;;;;;;5052044;28;20331;-88
2022/02/10 17:45:24;;;;;;;3.28;2.00;;;8.80;75.50;;;;;;5042731;28;20170;-87
2022/02/10 17:53:38;;;;;;;3.85;2.03;;;8.50;74.20;;;;;;5041058;28;20280;-89
2022/02/10 17:56:24;;;;;;;7.35;2.67;;;8.40;73.90;;;;;;5037642;28;20759;-88
2022/02/10 17:58:51;;;;;;;9.90;2.35;;;8.40;74.10;;;;;;5038162;28;20189;-88
2022/02/10 18:01:17;;;;;;;12.93;2.90;;;8.30;74.60;;;;;;5047581;28;20173;-88
2022/02/10 18:03:43;;;;;;;4.15;2.47;;;8.30;74.50;;;;;;5023426;28;20209;-88
2022/02/10 18:06:22;;;;;;;4.47;2.30;;;8.30;74.70;;;;;;5033056;28;20655;-88
2022/02/10 18:09:27;;;;;;;5.43;2.95;;;8.20;75.20;;;;;;5032869;28;20435;-88
2022/02/10 18:17:16;;;;;;;4.47;2.55;;;8.70;75.40;;;;;;5053952;28;20192;-88
2022/02/10 18:19:48;;;;;;;10.30;2.30;;;8.70;74.80;;;;;;5034942;28;20213;-89
2022/02/10 18:27:44;;;;;;;7.32;2.20;;;8.70;74.00;;;;;;5031024;28;20181;-88
2022/02/10 19:10:07;;;;;;;5.78;2.75;;;8.40;72.90;;;;;;5046479;28;20208;-89
2022/02/10 19:12:42;;;;;;;2.70;1.75;;;8.40;72.80;;;;;;5041417;28;20189;-89
2022/02/10 19:15:20;;;;;;;2.92;1.92;;;8.30;72.50;;;;;;5033526;28;20283;-89
2022/02/10 19:17:47;;;;;;;2.38;2.17;;;8.40;72.80;;;;;;5022221;28;20177;-87
2022/02/10 19:20:15;;;;;;;4.97;2.40;;;8.30;73.00;;;;;;5020175;28;20218;-88
2022/02/10 19:22:41;;;;;;;6.32;3.20;;;8.30;73.30;;;;;;5034863;28;20220;-88
2022/02/10 19:25:08;;;;;;;4.47;4.07;;;8.20;73.10;;;;;;5024873;28;20194;-87
2022/02/10 19:27:35;;;;;;;5.85;2.53;;;8.30;73.40;;;;;;5038223;28;20177;-88
2022/02/10 19:30:02;;;;;;;4.38;2.55;;;8.30;73.40;;;;;;5029760;28;20243;-88
2022/02/10 19:32:31;;;;;;;4.00;2.58;;;8.20;72.70;;;;;;5039094;28;20596;-87
2022/02/10 19:34:58;;;;;;;8.23;2.70;;;8.30;72.60;;;;;;5036361;28;20182;-88
2022/02/10 19:37:25;;;;;;;7.13;2.67;;;8.30;72.40;;;;;;5031753;28;20205;-89
2022/02/10 19:40:03;;;;;;;3.13;1.90;;;8.30;72.30;;;;;;5028680;28;20315;-87
2022/02/10 19:42:32;;;;;;;5.22;1.80;;;8.30;72.30;;;;;;5051240;28;20188;-88
2022/02/10 19:45:05;;;;;;;6.10;2.50;;;8.50;72.30;;;;;;5036328;28;20190;-87
2022/02/10 19:47:33;;;;;;;6.05;2.33;;;8.30;72.20;;;;;;5038221;28;20616;-88
2022/02/10 19:49:59;;;;;;;4.60;2.20;;;8.30;72.10;;;;;;5026766;28;20213;-88
2022/02/10 19:52:26;;;;;;;2.22;1.70;;;8.30;71.90;;;;;;5023066;28;20249;-88
2022/02/10 19:54:56;;;;;;;3.15;2.40;;;8.30;71.50;;;;;;5034514;28;20213;-87
2022/02/10 19:57:24;;;;;;;6.72;2.05;;;8.40;71.70;;;;;;5040255;28;20201;-87
2022/02/10 19:59:50;;;;;;;3.53;2.33;;;8.30;71.60;;;;;;5037805;28;20197;-88
2022/02/10 20:02:20;;;;;;;5.10;2.00;;;8.30;71.10;;;;;;5037365;28;20608;-88
2022/02/10 20:05:08;;;;;;;3.72;2.15;;;8.30;71.00;;;;;;5037841;28;20173;-87
2022/02/10 20:07:38;;;;;;;2.72;2.42;;;8.20;71.20;;;;;;5040234;28;20235;-88
2022/02/10 20:10:08;;;;;;;4.70;2.28;;;8.00;71.10;;;;;;5039001;28;20228;-87
2022/02/10 20:12:39;;;;;;;3.95;1.98;;;8.20;71.30;;;;;;5037464;28;20536;-88
2022/02/10 20:15:06;;;;;;;2.60;2.00;;;8.20;71.10;;;;;;5045793;28;20173;-91
2022/02/10 20:17:32;;;;;;;2.33;2.00;;;8.10;70.80;;;;;;5043999;28;20220;-89
2022/02/10 20:19:58;;;;;;;6.43;2.17;;;7.90;70.80;;;;;;5044357;28;20220;-89
2022/02/10 20:22:24;;;;;;;3.45;2.05;;;7.90;70.90;;;;;;5041684;28;20188;-89
2022/02/10 20:24:51;;;;;;;3.42;2.03;;;8.00;71.30;;;;;;5027987;28;20228;-89
2022/02/10 20:27:17;;;;;;;4.70;2.42;;;8.10;71.30;;;;;;5038059;28;20181;-89
2022/02/10 20:29:42;;;;;;;4.23;3.13;;;7.90;71.00;;;;;;5041394;28;20262;-89
2022/02/10 20:32:10;;;;;;;4.00;2.43;;;8.00;71.20;;;;;;5040307;28;20764;-89
2022/02/10 20:34:36;;;;;;;3.45;2.20;;;8.30;71.00;;;;;;5029570;28;20173;-89
2022/02/10 20:37:04;;;;;;;4.20;2.53;;;8.20;71.20;;;;;;5043604;28;20201;-91
2022/02/10 20:39:30;;;;;;;2.88;2.03;;;8.20;71.30;;;;;;5044022;28;20189;-89
2022/02/10 20:42:04;;;;;;;2.78;2.50;;;8.20;71.30;;;;;;5058004;28;20173;-89
2022/02/10 20:44:32;;;;;;;7.00;2.92;;;8.00;70.70;;;;;;5036619;28;20540;-89
2022/02/10 20:46:58;;;;;;;4.47;3.00;;;7.90;70.80;;;;;;5023768;28;20184;-89
2022/02/10 20:49:27;;;;;;;4.40;3.10;;;7.90;71.30;;;;;;5037800;28;20200;-88
2022/02/10 20:51:54;;;;;;;5.30;2.95;;;7.80;71.30;;;;;;5039824;28;20676;-89
2022/02/10 20:54:20;;;;;;;3.90;2.70;;;7.80;71.70;;;;;;5038917;28;20826;-88
2022/02/10 20:56:57;;;;;;;3.22;2.92;;;7.70;71.50;;;;;;5030187;28;20197;-88
2022/02/10 20:59:45;;;;;;;6.50;3.33;;;7.60;72.00;;;;;;5056148;28;20192;-88
2022/02/10 21:02:17;;;;;;;7.55;3.00;;;7.60;72.10;;;;;;5042132;28;20185;-88
2022/02/10 21:04:53;;;;;;;7.65;3.03;;;7.50;72.50;;;;;;5055688;28;20169;-89
2022/02/10 21:07:27;;;;;;;6.93;3.15;;;7.50;72.50;;;;;;5042660;28;20579;-86
2022/02/10 21:12:21;;;;;;;4.95;3.60;;;7.50;72.90;;;;;;5056108;28;20177;-88
2022/02/10 21:14:49;;;;;;;6.40;3.40;;;7.50;73.10;;;;;;5053682;28;20169;-88
2022/02/10 21:17:21;;;;;;;4.65;3.50;;;7.50;72.90;;;;;;5036502;28;20463;-87
2022/02/10 21:19:47;;;;;;;4.35;3.83;;;7.40;72.90;;;;;;5037467;28;20590;-88
2022/02/10 21:22:18;;;;;;;4.90;3.97;;;7.20;72.90;;;;;;5037825;28;20197;-87
2022/02/10 21:24:53;;;;;;;6.30;4.30;;;7.40;73.20;;;;;;5055826;28;20269;-87
2022/02/10 21:27:28;;;;;;;5.93;4.88;;;7.40;73.30;;;;;;5041203;28;20189;-88
2022/02/10 21:29:59;;;;;;;5.20;4.68;;;7.30;73.60;;;;;;5037864;28;20246;-89
2022/02/10 21:32:27;;;;;;;8.27;4.63;;;7.40;73.80;;;;;;5054537;28;20173;-88
2022/02/10 21:35:25;;;;;;;5.78;4.35;;;7.40;74.00;;;;;;5036869;28;20867;-88
2022/02/10 21:37:57;;;;;;;7.15;4.57;;;7.30;74.90;;;;;;5039097;28;20200;-88
2022/02/10 21:40:29;;;;;;;7.72;5.35;;;7.20;74.10;;;;;;5036732;28;20265;-88
2022/02/10 21:52:38;;;;;;;8.93;4.20;;;7.30;74.30;;;;;;4995955;28;20566;-89
2022/02/10 22:23:24;;;;;;;8.93;5.73;;;6.80;75.80;;;;;;5051922;28;20165;-89
2022/02/10 22:25:53;;;;;;;17.75;6.40;;;6.70;75.90;;;;;;5030386;28;20284;-89
2022/02/10 22:28:39;;;;;;;11.77;4.72;;;6.70;76.10;;;;;;5036349;28;20550;-89
2022/02/10 22:36:34;;;;;;;6.50;5.70;;;6.70;76.30;;;;;;5034196;28;20228;-88
2022/02/10 22:39:01;;;;;;;11.05;5.53;;;6.60;76.20;;;;;;5030460;28;20188;-88
2022/02/10 22:41:28;;;;;;;10.77;6.50;;;6.50;76.30;;;;;;5055492;28;20180;-88
2022/02/10 22:43:54;;;;;;;6.25;4.65;;;6.50;76.40;;;;;;5042169;28;20715;-88
2022/02/10 22:46:21;;;;;;;7.17;5.33;;;6.60;76.40;;;;;;5042396;28;20180;-88
2022/02/10 22:48:48;;;;;;;12.02;4.85;;;6.60;76.20;;;;;;5058820;28;20445;-88
2022/02/10 22:51:20;;;;;;;12.65;5.63;;;6.60;76.20;;;;;;5050038;28;20263;-88
2022/02/10 22:53:47;;;;;;;9.27;4.80;;;6.60;76.30;;;;;;5043468;28;20204;-88
2022/02/10 22:56:15;;;;;;;6.65;4.75;;;6.60;76.40;;;;;;5035676;28;20212;-88
2022/02/10 22:58:41;;;;;;;8.75;4.95;;;6.60;76.30;;;;;;5053406;28;20173;-88
2022/02/10 23:01:08;;;;;;;11.90;4.70;;;6.80;77.20;;;;;;5034963;28;20173;-88
2022/02/10 23:03:36;;;;;;;7.20;4.55;;;6.80;76.30;;;;;;5035415;28;21130;-88
2022/02/10 23:06:03;;;;;;;4.63;3.83;;;6.80;76.00;;;;;;5035781;28;20550;-88
2022/02/10 23:08:29;;;;;;;8.13;4.88;;;6.70;76.00;;;;;;5036581;28;20178;-89
2022/02/10 23:10:55;;;;;;;5.93;4.45;;;6.60;76.10;;;;;;5037607;28;20173;-89
2022/02/10 23:13:26;;;;;;;6.87;4.33;;;6.70;76.30;;;;;;5039487;28;20231;-89
2022/02/10 23:15:53;;;;;;;7.03;4.78;;;6.70;76.20;;;;;;5045551;28;20241;-87
2022/02/10 23:18:27;;;;;;;7.05;5.30;;;6.60;76.10;;;;;;5049322;28;20177;-88
2022/02/10 23:20:58;;;;;;;6.75;5.20;;;6.60;76.40;;;;;;5039047;28;20189;-87
2022/02/10 23:23:26;;;;;;;6.15;4.85;;;6.60;76.50;;;;;;5040308;28;20180;-88
2022/02/10 23:25:54;;;;;;;7.88;4.63;;;6.60;76.90;;;;;;5020710;28;20182;-88
2022/02/10 23:28:25;;;;;;;7.80;3.85;;;6.50;76.80;;;;;;5036018;28;20181;-88
2022/02/10 23:30:52;;;;;;;13.90;4.82;;;6.50;76.90;;;;;;5053523;28;20810;-88
2022/02/10 23:33:32;;;;;;;6.65;4.35;;;6.50;77.00;;;;;;5019600;28;20213;-88
2022/02/10 23:38:50;;;;;;;6.53;4.90;;;6.40;76.90;;;;;;5058205;28;20780;-88
2022/02/10 23:41:52;;;;;;;4.80;4.10;;;6.40;77.10;;;;;;5039540;28;20210;-88
2022/02/10 23:44:26;;;;;;;8.00;4.55;;;6.50;77.10;;;;;;5056700;28;20174;-88
2022/02/10 23:46:52;;;;;;;11.80;4.40;;;6.50;76.90;;;;;;5040388;28;20196;-87
2022/02/10 23:49:20;;;;;;;10.82;5.10;;;6.40;76.90;;;;;;5059991;28;20243;-88
2022/02/10 23:51:55;;;;;;;7.45;4.43;;;6.40;77.00;;;;;;5043817;28;20655;-88
2022/02/10 23:54:22;;;;;;;7.57;4.18;;;6.40;76.60;;;;;;5038891;28;20169;-88
2022/02/10 23:56:58;;;;;;;8.48;4.00;;;6.30;76.40;;;;;;5039301;28;20200;-87
